Time;durP1;ratioP1;P1;durP2;ratioP2;P2;SDS_P1;SDS_P2;PMS_P1;PMS_P2;Temp;Humidity;BMP_temperature;BMP_pressure;BME280_temperature;BME280_humidity;BME280_pressure;Samples;Min_cycle;Max_cycle;Signal;HPM_P1;HPM_P2
2023/04/09 00:00:23;;;;;;;0.00;0.00;;;8.40;99.90;;;;;;5084036;28;20221;-59
2023/04/09 00:02:48;;;;;;;0.00;0.00;;;8.40;99.90;;;;;;5091173;28;20573;-59
2023/04/09 00:05:14;;;;;;;0.00;0.00;;;8.40;99.90;;;;;;5090552;28;20183;-59
2023/04/09 00:07:40;;;;;;;0.00;0.00;;;8.40;99.90;;;;;;5089616;28;20230;-59
2023/04/09 00:10:06;;;;;;;0.03;0.03;;;8.40;99.90;;;;;;5089157;28;20251;-59
2023/04/09 00:12:31;;;;;;;0.00;0.00;;;8.40;99.90;;;;;;5090887;28;20181;-59
2023/04/09 00:14:57;;;;;;;0.00;0.00;;;8.40;99.90;;;;;;5090794;28;20184;-59
2023/04/09 00:17:22;;;;;;;0.00;0.00;;;8.40;99.90;;;;;;5090585;28;20935;-59
2023/04/09 00:19:48;;;;;;;0.00;0.00;;;8.30;99.90;;;;;;5090462;28;20192;-59
2023/04/09 00:22:14;;;;;;;0.15;0.15;;;8.30;99.90;;;;;;5089996;28;20238;-59
2023/04/09 00:24:40;;;;;;;0.00;0.00;;;8.30;99.90;;;;;;5089993;28;20184;-59
2023/04/09 00:27:05;;;;;;;0.13;0.05;;;8.30;99.90;;;;;;5089504;28;20565;-59
2023/04/09 00:29:31;;;;;;;0.25;0.25;;;8.30;99.90;;;;;;5089692;28;20183;-59
2023/04/09 00:31:56;;;;;;;0.00;0.00;;;8.30;99.90;;;;;;5090106;28;20172;-59
2023/04/09 00:34:22;;;;;;;0.00;0.00;;;8.30;99.90;;;;;;5090374;28;20176;-59
2023/04/09 00:36:47;;;;;;;0.30;0.28;;;8.30;99.90;;;;;;5089677;28;20180;-59
2023/04/09 00:39:13;;;;;;;0.00;0.00;;;8.30;99.90;;;;;;5090381;28;20301;-59
2023/04/09 00:41:38;;;;;;;0.47;0.47;;;8.30;99.90;;;;;;5072042;28;20230;-59
2023/04/09 00:44:04;;;;;;;0.00;0.00;;;8.30;99.90;;;;;;5089985;28;20549;-59
2023/04/09 00:46:31;;;;;;;0.00;0.00;;;8.30;99.90;;;;;;5089357;28;20653;-60
2023/04/09 00:48:56;;;;;;;0.10;0.10;;;8.40;99.90;;;;;;5090594;28;20249;-58
2023/04/09 00:51:22;;;;;;;0.05;0.05;;;8.40;99.90;;;;;;5089953;28;20667;-59
2023/04/09 00:53:49;;;;;;;0.00;0.00;;;8.40;99.90;;;;;;5089925;28;20184;-59
2023/04/09 00:56:16;;;;;;;0.00;0.00;;;8.40;99.90;;;;;;5089443;28;20184;-58
2023/04/09 00:58:41;;;;;;;0.00;0.00;;;8.40;99.90;;;;;;5071688;28;20180;-58
2023/04/09 01:01:07;;;;;;;0.00;0.00;;;8.40;99.90;;;;;;5088983;28;20179;-58
2023/04/09 01:03:33;;;;;;;0.22;0.22;;;8.40;99.90;;;;;;5089287;28;20216;-58
2023/04/09 01:06:09;;;;;;;0.00;0.00;;;8.40;99.90;;;;;;5088982;28;20215;-58
2023/04/09 01:08:54;;;;;;;0.00;0.00;;;8.40;99.90;;;;;;5088508;28;20178;-58
2023/04/09 01:11:35;;;;;;;0.00;0.00;;;8.40;99.90;;;;;;5089713;28;20224;-58
2023/04/09 01:14:17;;;;;;;0.00;0.00;;;8.40;99.90;;;;;;5089441;28;20539;-58
2023/04/09 01:16:49;;;;;;;0.17;0.17;;;8.40;99.90;;;;;;5088968;28;20291;-59
2023/04/09 01:19:45;;;;;;;0.10;0.10;;;8.30;99.90;;;;;;5090002;28;20215;-59
2023/04/09 01:22:43;;;;;;;0.35;0.25;;;8.30;99.90;;;;;;5089714;28;20339;-58
2023/04/09 01:25:32;;;;;;;0.00;0.00;;;8.30;99.90;;;;;;5048798;28;20191;-58
2023/04/09 01:28:13;;;;;;;0.00;0.00;;;8.20;99.90;;;;;;5086661;28;20234;-58
2023/04/09 01:30:42;;;;;;;0.00;0.00;;;8.20;99.90;;;;;;5082511;28;20172;-58
2023/04/09 01:33:09;;;;;;;0.00;0.00;;;8.10;99.90;;;;;;5090119;28;20309;-58
2023/04/09 01:35:35;;;;;;;0.00;0.00;;;8.10;99.90;;;;;;5090442;28;20186;-58
2023/04/09 01:38:02;;;;;;;0.00;0.00;;;8.10;99.90;;;;;;5093903;28;20172;-58
2023/04/09 01:40:29;;;;;;;0.22;0.20;;;8.10;99.90;;;;;;5080778;28;20176;-59
2023/04/09 01:42:55;;;;;;;0.10;0.10;;;8.10;99.90;;;;;;5094295;28;20748;-58
2023/04/09 01:45:21;;;;;;;0.00;0.00;;;8.00;99.90;;;;;;5094145;28;20180;-58
2023/04/09 01:47:47;;;;;;;0.08;0.08;;;8.10;99.90;;;;;;5094342;28;20168;-60
2023/04/09 01:50:13;;;;;;;0.00;0.00;;;8.10;99.90;;;;;;5093800;28;20597;-58
2023/04/09 01:52:39;;;;;;;0.10;0.10;;;8.10;99.90;;;;;;5075651;28;20271;-59
2023/04/09 01:55:05;;;;;;;0.00;0.00;;;8.10;99.90;;;;;;5094378;28;20164;-58
2023/04/09 01:57:30;;;;;;;0.00;0.00;;;8.10;99.90;;;;;;5094021;28;20195;-59
2023/04/09 01:59:56;;;;;;;0.10;0.10;;;8.10;99.90;;;;;;5093718;28;20161;-59
2023/04/09 02:02:32;;;;;;;0.05;0.05;;;8.10;99.90;;;;;;5093205;28;20218;-58
2023/04/09 02:05:00;;;;;;;0.00;0.00;;;8.10;99.90;;;;;;5093758;28;20184;-58
2023/04/09 02:07:41;;;;;;;0.00;0.00;;;8.10;99.90;;;;;;5093811;28;20262;-58
2023/04/09 02:10:08;;;;;;;0.00;0.00;;;8.10;99.90;;;;;;5088687;28;20238;-58
2023/04/09 02:12:37;;;;;;;0.00;0.00;;;8.10;99.90;;;;;;5075726;28;20227;-58
2023/04/09 02:15:04;;;;;;;0.00;0.00;;;8.10;99.90;;;;;;5093332;28;20225;-58
2023/04/09 02:17:30;;;;;;;0.00;0.00;;;8.00;99.90;;;;;;5093608;28;20188;-58
2023/04/09 02:19:56;;;;;;;0.00;0.00;;;8.00;99.90;;;;;;5093383;28;20294;-58
2023/04/09 02:22:21;;;;;;;0.00;0.00;;;8.00;99.90;;;;;;5093190;28;20231;-58
2023/04/09 02:24:47;;;;;;;0.50;0.50;;;7.90;99.90;;;;;;5093457;28;20176;-58
2023/04/09 02:27:12;;;;;;;0.13;0.13;;;7.90;99.90;;;;;;5093109;28;20227;-58
2023/04/09 02:29:41;;;;;;;0.05;0.05;;;7.80;99.90;;;;;;5093483;28;20176;-58
2023/04/09 02:32:07;;;;;;;0.00;0.00;;;7.80;99.90;;;;;;5092749;28;20191;-58
2023/04/09 02:34:32;;;;;;;0.20;0.20;;;7.80;99.90;;;;;;5092627;28;20168;-59
2023/04/09 02:36:58;;;;;;;0.52;0.52;;;7.70;99.90;;;;;;5093152;28;20695;-58
2023/04/09 02:39:24;;;;;;;0.10;0.10;;;7.70;99.90;;;;;;5093318;28;20230;-58
2023/04/09 02:41:49;;;;;;;0.32;0.32;;;7.70;99.90;;;;;;5092925;28;20269;-58
2023/04/09 02:44:15;;;;;;;0.00;0.00;;;7.60;99.90;;;;;;5092619;28;20257;-58
2023/04/09 02:46:41;;;;;;;0.25;0.25;;;7.60;99.90;;;;;;5091817;28;20176;-58
2023/04/09 02:49:06;;;;;;;0.00;0.00;;;7.50;99.90;;;;;;5092862;28;20194;-58
2023/04/09 02:51:35;;;;;;;0.00;0.00;;;7.40;99.90;;;;;;5092925;28;20247;-58
2023/04/09 02:54:01;;;;;;;0.00;0.00;;;7.30;99.90;;;;;;5089801;28;20277;-58
2023/04/09 02:56:27;;;;;;;0.13;0.13;;;7.30;99.90;;;;;;5092301;28;20176;-58
2023/04/09 02:58:52;;;;;;;0.10;0.10;;;7.20;99.90;;;;;;5093171;28;20298;-58
2023/04/09 03:01:19;;;;;;;0.00;0.00;;;7.20;99.90;;;;;;5084072;28;20679;-58
2023/04/09 03:03:46;;;;;;;0.00;0.00;;;7.20;99.90;;;;;;5091364;28;20216;-58
2023/04/09 03:06:11;;;;;;;0.17;0.17;;;7.10;99.90;;;;;;5091487;28;20176;-58
2023/04/09 03:08:37;;;;;;;0.52;0.52;;;7.10;99.90;;;;;;5091684;28;20195;-58
2023/04/09 03:11:02;;;;;;;0.00;0.00;;;7.10;99.90;;;;;;5090115;28;20176;-58
2023/04/09 03:13:28;;;;;;;0.00;0.00;;;7.00;99.90;;;;;;5091922;28;20241;-59
2023/04/09 03:15:53;;;;;;;0.00;0.00;;;7.00;99.90;;;;;;5091596;28;20172;-58
2023/04/09 03:18:19;;;;;;;0.00;0.00;;;7.00;99.90;;;;;;5091770;28;20208;-58
2023/04/09 03:20:46;;;;;;;0.03;0.03;;;7.00;99.90;;;;;;5091473;28;20204;-58
2023/04/09 03:23:11;;;;;;;0.20;0.20;;;6.90;99.90;;;;;;5091437;28;20208;-58
2023/04/09 03:25:37;;;;;;;0.30;0.30;;;6.90;99.90;;;;;;5091429;28;20684;-58
2023/04/09 03:28:03;;;;;;;0.00;0.00;;;6.90;99.90;;;;;;5091311;28;20228;-58
2023/04/09 03:30:29;;;;;;;0.00;0.00;;;6.80;99.90;;;;;;5091402;28;20172;-58
2023/04/09 03:32:54;;;;;;;0.40;0.22;;;6.80;99.90;;;;;;5091494;28;20172;-58
2023/04/09 03:35:20;;;;;;;0.20;0.20;;;6.80;99.90;;;;;;5092034;28;20225;-58
2023/04/09 03:37:46;;;;;;;0.00;0.00;;;6.80;99.90;;;;;;5073326;28;20184;-58
2023/04/09 03:40:12;;;;;;;0.00;0.00;;;6.80;99.90;;;;;;5091677;28;20708;-58
2023/04/09 03:42:37;;;;;;;0.00;0.00;;;6.80;99.90;;;;;;5091166;28;20216;-58
2023/04/09 03:45:04;;;;;;;0.00;0.00;;;6.80;99.90;;;;;;5091517;28;20673;-58
2023/04/09 03:47:29;;;;;;;0.00;0.00;;;6.70;99.90;;;;;;5091322;28;20229;-59
2023/04/09 03:49:55;;;;;;;0.17;0.17;;;6.70;99.90;;;;;;5091694;28;20177;-59
2023/04/09 03:52:21;;;;;;;0.00;0.00;;;6.70;99.90;;;;;;5091153;28;20267;-58
2023/04/09 03:54:46;;;;;;;0.00;0.00;;;6.70;99.90;;;;;;5090887;28;20205;-58
2023/04/09 03:57:12;;;;;;;0.00;0.00;;;6.70;99.90;;;;;;5091137;28;20188;-58
2023/04/09 03:59:38;;;;;;;0.17;0.17;;;6.60;99.90;;;;;;5090548;28;20160;-58
2023/04/09 04:02:03;;;;;;;0.10;0.10;;;6.60;99.90;;;;;;5091028;28;20235;-58
2023/04/09 04:04:29;;;;;;;0.00;0.00;;;6.60;99.90;;;;;;5091410;28;20180;-58
2023/04/09 04:06:54;;;;;;;0.00;0.00;;;6.60;99.90;;;;;;5091299;28;20160;-58
2023/04/09 04:09:20;;;;;;;0.00;0.00;;;6.60;99.90;;;;;;5091780;28;20207;-58
2023/04/09 04:11:46;;;;;;;0.13;0.13;;;6.50;99.90;;;;;;5088832;28;20187;-58
2023/04/09 04:14:11;;;;;;;0.03;0.03;;;6.50;99.90;;;;;;5091342;28;20188;-58
2023/04/09 04:16:39;;;;;;;0.00;0.00;;;6.50;99.90;;;;;;5090759;28;20187;-58
2023/04/09 04:19:05;;;;;;;0.03;0.03;;;6.40;99.90;;;;;;5090930;28;20160;-58
2023/04/09 04:21:30;;;;;;;0.00;0.00;;;6.50;99.90;;;;;;5091338;28;20192;-58
2023/04/09 04:23:56;;;;;;;0.00;0.00;;;6.40;99.90;;;;;;5091340;28;20188;-58
2023/04/09 04:26:21;;;;;;;0.00;0.00;;;6.40;99.90;;;;;;5090787;28;20570;-58
2023/04/09 04:28:47;;;;;;;0.47;0.43;;;6.50;99.90;;;;;;5090559;28;20183;-58
2023/04/09 04:31:13;;;;;;;0.17;0.17;;;6.50;99.90;;;;;;5072809;28;20572;-59
2023/04/09 04:33:39;;;;;;;0.00;0.00;;;6.50;99.90;;;;;;5090879;28;20537;-58
2023/04/09 04:36:10;;;;;;;0.08;0.08;;;6.50;99.90;;;;;;5090521;28;20587;-58
2023/04/09 04:38:35;;;;;;;0.00;0.00;;;6.50;99.90;;;;;;5089389;28;20237;-58
2023/04/09 04:41:01;;;;;;;0.00;0.00;;;6.50;99.90;;;;;;5090094;28;20192;-58
2023/04/09 04:43:27;;;;;;;0.00;0.00;;;6.40;99.90;;;;;;5089574;28;20215;-58
2023/04/09 04:45:53;;;;;;;0.35;0.35;;;6.50;99.90;;;;;;5089507;28;20254;-58
2023/04/09 04:48:19;;;;;;;0.00;0.00;;;6.50;99.90;;;;;;5089734;28;20184;-58
2023/04/09 04:50:45;;;;;;;0.00;0.00;;;6.50;99.90;;;;;;5089293;28;20191;-58
2023/04/09 04:53:10;;;;;;;0.00;0.00;;;6.50;99.90;;;;;;5090386;28;20172;-58
2023/04/09 04:55:38;;;;;;;0.35;0.35;;;6.50;99.90;;;;;;5089486;28;20548;-58
2023/04/09 04:58:04;;;;;;;0.00;0.00;;;6.50;99.90;;;;;;5090046;28;20176;-58
2023/04/09 05:00:30;;;;;;;0.00;0.00;;;6.40;99.90;;;;;;5089792;28;20312;-58
2023/04/09 05:02:55;;;;;;;0.00;0.00;;;6.40;99.90;;;;;;5089220;28;20226;-58
2023/04/09 05:05:21;;;;;;;0.08;0.08;;;6.40;99.90;;;;;;5089687;28;20172;-58
2023/04/09 05:07:46;;;;;;;0.10;0.10;;;6.40;99.90;;;;;;5090150;28;20585;-58
2023/04/09 05:10:12;;;;;;;0.20;0.20;;;6.50;99.90;;;;;;5088915;28;20381;-58
2023/04/09 05:12:37;;;;;;;0.00;0.00;;;6.50;99.90;;;;;;5083196;28;20219;-58
2023/04/09 05:15:03;;;;;;;0.10;0.10;;;6.50;99.90;;;;;;5088725;28;20259;-58
2023/04/09 05:17:29;;;;;;;0.00;0.00;;;6.60;99.90;;;;;;5089621;28;20176;-58
2023/04/09 05:19:56;;;;;;;0.00;0.00;;;6.60;99.90;;;;;;5089252;28;20203;-58
2023/04/09 05:22:22;;;;;;;0.03;0.03;;;6.60;99.90;;;;;;5088594;28;20703;-58
2023/04/09 05:24:48;;;;;;;0.00;0.00;;;6.70;99.90;;;;;;5088725;28;20243;-58
2023/04/09 05:27:14;;;;;;;0.08;0.08;;;6.80;99.90;;;;;;5088995;28;20218;-58
2023/04/09 05:29:40;;;;;;;0.00;0.00;;;6.80;99.90;;;;;;5089572;28;20176;-58
2023/04/09 05:32:07;;;;;;;0.10;0.10;;;6.80;99.90;;;;;;5088762;28;20175;-58
2023/04/09 05:34:33;;;;;;;0.00;0.00;;;6.90;99.90;;;;;;5088938;28;20267;-58
2023/04/09 05:36:58;;;;;;;0.15;0.15;;;6.90;99.90;;;;;;5088319;28;20266;-58
2023/04/09 05:39:24;;;;;;;0.00;0.00;;;7.00;99.90;;;;;;5088899;28;20270;-58
2023/04/09 05:41:51;;;;;;;0.00;0.00;;;7.00;99.90;;;;;;5089504;28;20721;-58
2023/04/09 05:44:16;;;;;;;0.00;0.00;;;7.10;99.90;;;;;;5089202;28;20176;-58
2023/04/09 05:46:42;;;;;;;0.22;0.22;;;7.20;99.90;;;;;;5088376;28;20267;-58
2023/04/09 05:49:07;;;;;;;0.10;0.10;;;7.30;99.90;;;;;;5088855;28;20275;-58
2023/04/09 05:51:33;;;;;;;0.30;0.30;;;7.40;99.90;;;;;;5089160;28;20241;-58
2023/04/09 05:53:59;;;;;;;0.00;0.00;;;7.40;99.90;;;;;;5088763;28;20240;-58
2023/04/09 05:56:26;;;;;;;0.00;0.00;;;7.50;99.90;;;;;;5089521;28;20233;-58
2023/04/09 05:58:52;;;;;;;0.10;0.10;;;7.60;99.90;;;;;;5089016;28;20211;-58
2023/04/09 06:01:18;;;;;;;0.00;0.00;;;7.80;99.90;;;;;;5088640;28;20266;-58
2023/04/09 06:03:43;;;;;;;0.00;0.00;;;7.90;99.90;;;;;;5088987;28;20216;-58
2023/04/09 06:06:09;;;;;;;0.00;0.00;;;8.00;99.90;;;;;;5088918;28;20176;-58
2023/04/09 06:08:35;;;;;;;0.00;0.00;;;8.10;99.90;;;;;;5088825;28;20302;-58
2023/04/09 06:11:00;;;;;;;0.00;0.00;;;8.10;99.90;;;;;;5088241;28;20642;-58
2023/04/09 06:13:26;;;;;;;0.00;0.00;;;8.20;99.90;;;;;;5089259;28;20168;-58
2023/04/09 06:15:52;;;;;;;0.03;0.03;;;8.30;99.90;;;;;;5088680;28;20590;-58
2023/04/09 06:18:17;;;;;;;0.00;0.00;;;8.40;99.90;;;;;;5089052;28;20175;-58
2023/04/09 06:20:43;;;;;;;0.22;0.22;;;8.60;99.90;;;;;;5088884;28;20192;-58
2023/04/09 06:23:08;;;;;;;0.00;0.00;;;8.90;99.90;;;;;;5090832;28;20573;-58
2023/04/09 06:25:35;;;;;;;0.00;0.00;;;9.40;99.90;;;;;;5092703;28;20263;-58
2023/04/09 06:28:01;;;;;;;0.00;0.00;;;9.70;99.90;;;;;;5074532;28;20503;-58
2023/04/09 06:30:28;;;;;;;0.00;0.00;;;10.00;99.90;;;;;;5092719;28;20572;-58
2023/04/09 06:32:53;;;;;;;0.10;0.10;;;10.20;99.90;;;;;;5092308;28;20578;-58
2023/04/09 06:35:19;;;;;;;0.10;0.10;;;10.40;99.90;;;;;;5092591;28;20198;-58
2023/04/09 06:37:45;;;;;;;0.00;0.00;;;10.50;99.90;;;;;;5092598;28;20267;-58
2023/04/09 06:40:11;;;;;;;0.10;0.10;;;10.60;99.90;;;;;;5092676;28;20171;-58
2023/04/09 06:42:36;;;;;;;0.00;0.00;;;10.50;99.90;;;;;;5092902;28;20218;-59
2023/04/09 06:45:07;;;;;;;0.00;0.00;;;10.50;99.90;;;;;;5074907;28;20574;-58
2023/04/09 06:47:35;;;;;;;0.10;0.10;;;10.50;99.90;;;;;;5092937;28;20176;-58
2023/04/09 06:50:01;;;;;;;0.00;0.00;;;10.40;99.90;;;;;;5092940;28;20186;-58
2023/04/09 06:52:26;;;;;;;0.00;0.00;;;10.20;99.90;;;;;;5092943;28;20168;-58
2023/04/09 06:54:52;;;;;;;0.00;0.00;;;10.20;99.90;;;;;;5092988;28;20306;-58
2023/04/09 06:57:17;;;;;;;0.00;0.00;;;10.20;99.90;;;;;;5093265;28;20221;-59
2023/04/09 06:59:43;;;;;;;0.00;0.00;;;10.30;99.90;;;;;;5093077;28;20186;-58
2023/04/09 07:02:08;;;;;;;0.00;0.00;;;10.40;99.90;;;;;;5092484;28;20219;-58
2023/04/09 07:04:34;;;;;;;0.17;0.17;;;10.50;99.90;;;;;;5092901;28;20639;-58
2023/04/09 07:07:00;;;;;;;0.25;0.25;;;10.60;99.90;;;;;;5092901;28;20665;-59
2023/04/09 07:09:25;;;;;;;0.10;0.10;;;10.60;99.90;;;;;;5092359;28;20230;-58
2023/04/09 07:11:51;;;;;;;0.00;0.00;;;10.70;99.90;;;;;;5073852;28;20168;-59
2023/04/09 07:14:16;;;;;;;0.00;0.00;;;10.80;99.90;;;;;;5091652;28;20233;-59
2023/04/09 07:16:45;;;;;;;0.00;0.00;;;11.00;99.90;;;;;;5091948;28;20693;-59
2023/04/09 07:19:10;;;;;;;0.22;0.20;;;11.30;99.90;;;;;;5089415;28;20180;-59
2023/04/09 07:21:36;;;;;;;0.00;0.00;;;11.60;99.90;;;;;;5081818;28;20198;-59
2023/04/09 07:24:01;;;;;;;0.00;0.00;;;12.00;99.90;;;;;;5092687;28;20180;-59
2023/04/09 07:26:28;;;;;;;0.00;0.00;;;12.40;99.90;;;;;;5092206;28;20906;-59
2023/04/09 07:28:55;;;;;;;0.10;0.10;;;12.80;99.90;;;;;;5092853;28;20228;-59
2023/04/09 07:31:20;;;;;;;0.00;0.00;;;13.20;99.00;;;;;;5091487;28;20716;-59
2023/04/09 07:33:46;;;;;;;0.05;0.05;;;13.80;98.30;;;;;;5092392;28;20602;-59
2023/04/09 07:36:11;;;;;;;0.00;0.00;;;14.80;97.50;;;;;;5092660;28;20238;-59
2023/04/09 07:38:37;;;;;;;0.00;0.00;;;16.00;95.30;;;;;;5092757;28;20581;-59
2023/04/09 07:41:03;;;;;;;0.00;0.00;;;16.80;93.50;;;;;;5092560;28;20176;-60
2023/04/09 07:43:28;;;;;;;0.00;0.00;;;17.50;91.00;;;;;;5092162;28;20579;-60
2023/04/09 07:45:54;;;;;;;0.10;0.10;;;17.90;87.40;;;;;;5073881;28;20207;-62
2023/04/09 07:48:20;;;;;;;0.00;0.00;;;18.20;85.60;;;;;;5092616;28;20221;-60
2023/04/09 07:50:45;;;;;;;0.00;0.00;;;18.60;82.10;;;;;;5092390;28;20207;-59
2023/04/09 07:53:11;;;;;;;0.00;0.00;;;18.80;80.40;;;;;;5092126;28;20583;-60
2023/04/09 07:55:37;;;;;;;0.00;0.00;;;19.10;79.10;;;;;;5091693;28;20554;-60
2023/04/09 07:58:04;;;;;;;0.00;0.00;;;19.30;77.20;;;;;;5092007;28;20191;-59
2023/04/09 08:00:29;;;;;;;0.00;0.00;;;19.70;74.90;;;;;;5091927;28;20172;-61
2023/04/09 08:02:56;;;;;;;0.45;0.38;;;20.10;73.10;;;;;;5091415;28;20290;-60
2023/04/09 08:05:22;;;;;;;0.05;0.05;;;20.40;71.80;;;;;;5091839;28;20184;-60
2023/04/09 08:07:49;;;;;;;0.00;0.00;;;20.60;68.40;;;;;;5091607;28;20653;-60
2023/04/09 08:10:15;;;;;;;0.00;0.00;;;20.60;68.50;;;;;;5091905;28;20263;-59
2023/04/09 08:12:40;;;;;;;0.00;0.00;;;20.60;67.20;;;;;;5091607;28;20272;-58
2023/04/09 08:15:06;;;;;;;0.10;0.10;;;20.60;67.10;;;;;;5091831;28;20507;-60
2023/04/09 08:17:32;;;;;;;0.00;0.00;;;20.60;62.70;;;;;;5083858;28;20176;-60
2023/04/09 08:19:57;;;;;;;0.05;0.05;;;20.50;63.20;;;;;;5091818;28;20542;-60
2023/04/09 08:22:23;;;;;;;0.00;0.00;;;20.60;63.80;;;;;;5087299;28;20565;-60
2023/04/09 08:24:54;;;;;;;0.00;0.00;;;20.90;64.00;;;;;;5078181;28;20223;-59
2023/04/09 08:27:20;;;;;;;0.00;0.00;;;20.70;62.40;;;;;;5083731;28;20254;-60
2023/04/09 08:29:46;;;;;;;0.00;0.00;;;20.10;61.80;;;;;;5075462;28;20183;-59
2023/04/09 08:32:11;;;;;;;0.00;0.00;;;19.20;62.20;;;;;;5091528;28;20172;-59
2023/04/09 08:34:37;;;;;;;0.00;0.00;;;18.70;64.90;;;;;;5091506;28;20180;-60
2023/04/09 08:37:02;;;;;;;0.00;0.00;;;18.40;65.40;;;;;;5091303;28;20262;-60
2023/04/09 08:39:28;;;;;;;0.00;0.00;;;17.90;65.70;;;;;;5070204;28;20184;-60
2023/04/09 08:42:00;;;;;;;0.00;0.00;;;17.10;66.30;;;;;;5076176;28;20259;-60
2023/04/09 08:44:26;;;;;;;0.10;0.10;;;16.60;68.20;;;;;;5090846;28;20214;-59
2023/04/09 08:46:51;;;;;;;0.00;0.00;;;16.10;70.60;;;;;;5091235;28;20727;-59
2023/04/09 08:49:17;;;;;;;0.00;0.00;;;16.00;72.60;;;;;;5091137;28;20187;-59
2023/04/09 08:51:49;;;;;;;0.00;0.00;;;16.00;72.70;;;;;;5087642;28;20188;-59
2023/04/09 08:54:17;;;;;;;0.05;0.05;;;15.70;72.60;;;;;;5073203;28;20188;-60
2023/04/09 08:56:43;;;;;;;0.00;0.00;;;15.30;72.70;;;;;;5082559;28;20188;-59
2023/04/09 08:59:08;;;;;;;0.25;0.25;;;14.80;73.50;;;;;;5090955;28;20883;-59
2023/04/09 09:01:34;;;;;;;0.00;0.00;;;14.70;73.90;;;;;;5090643;28;20184;-59
2023/04/09 09:04:07;;;;;;;0.10;0.10;;;14.70;74.20;;;;;;5090153;28;20222;-59
2023/04/09 09:06:38;;;;;;;0.00;0.00;;;14.90;75.10;;;;;;5090167;28;20218;-60
2023/04/09 09:09:12;;;;;;;0.10;0.10;;;15.30;74.60;;;;;;5089746;28;20543;-59
2023/04/09 09:11:40;;;;;;;0.00;0.00;;;15.70;72.30;;;;;;5090272;28;20180;-60
2023/04/09 09:14:07;;;;;;;0.00;0.00;;;15.70;71.70;;;;;;5090487;28;20263;-59
2023/04/09 09:16:38;;;;;;;0.00;0.00;;;15.50;71.50;;;;;;5088795;28;20176;-59
2023/04/09 09:19:04;;;;;;;0.00;0.00;;;15.40;71.60;;;;;;5090679;28;20187;-59
2023/04/09 09:21:30;;;;;;;0.00;0.00;;;15.30;70.80;;;;;;5090010;28;20219;-60
2023/04/09 09:23:57;;;;;;;0.00;0.00;;;15.30;70.30;;;;;;5090374;28;20629;-59
2023/04/09 09:26:28;;;;;;;0.00;0.00;;;15.20;69.60;;;;;;5088612;28;20180;-60
2023/04/09 09:28:54;;;;;;;0.08;0.08;;;15.20;69.90;;;;;;5078969;28;20196;-60
2023/04/09 09:31:21;;;;;;;0.00;0.00;;;15.40;68.50;;;;;;5083332;28;20187;-59
2023/04/09 09:33:47;;;;;;;0.00;0.00;;;15.50;69.70;;;;;;5091079;28;20172;-60
2023/04/09 09:36:14;;;;;;;0.00;0.00;;;15.70;68.70;;;;;;5072195;28;20179;-60
2023/04/09 09:38:53;;;;;;;0.05;0.05;;;15.80;68.80;;;;;;5090535;28;20262;-59
2023/04/09 09:41:19;;;;;;;0.00;0.00;;;15.80;67.00;;;;;;5084364;28;20259;-61
2023/04/09 09:43:44;;;;;;;0.00;0.00;;;15.80;67.70;;;;;;5084075;28;20330;-60
2023/04/09 09:46:11;;;;;;;0.15;0.15;;;15.80;68.30;;;;;;5086945;28;20185;-60
2023/04/09 09:48:37;;;;;;;0.00;0.00;;;15.80;67.30;;;;;;5090730;28;20638;-60
2023/04/09 09:51:10;;;;;;;0.00;0.00;;;16.00;67.00;;;;;;5086633;28;20268;-60
2023/04/09 09:53:37;;;;;;;0.03;0.03;;;16.00;66.40;;;;;;5090201;28;20220;-59
2023/04/09 09:56:10;;;;;;;0.10;0.10;;;15.90;66.40;;;;;;5089912;28;20263;-58
2023/04/09 09:58:40;;;;;;;0.38;0.38;;;15.80;66.20;;;;;;5094370;28;20271;-59
2023/04/09 10:01:10;;;;;;;0.00;0.00;;;15.70;66.60;;;;;;5094024;28;20184;-58
2023/04/09 10:03:38;;;;;;;0.05;0.05;;;15.70;64.50;;;;;;5093874;28;20227;-58
2023/04/09 10:06:05;;;;;;;0.00;0.00;;;15.40;65.40;;;;;;5092835;28;20734;-59
2023/04/09 10:08:32;;;;;;;0.00;0.00;;;15.30;67.00;;;;;;5093607;28;20180;-59
2023/04/09 10:11:03;;;;;;;0.00;0.00;;;15.30;67.90;;;;;;5094044;28;20200;-58
2023/04/09 10:13:45;;;;;;;0.10;0.10;;;15.40;65.40;;;;;;5094148;28;20176;-58
2023/04/09 10:16:11;;;;;;;0.00;0.00;;;15.40;65.50;;;;;;5092440;28;20173;-58
2023/04/09 10:18:37;;;;;;;0.00;0.00;;;15.50;68.80;;;;;;5080439;28;20233;-58
2023/04/09 10:21:21;;;;;;;0.00;0.00;;;15.70;65.00;;;;;;5093817;28;20211;-58
2023/04/09 10:23:49;;;;;;;0.00;0.00;;;15.80;59.90;;;;;;5093710;28;20215;-58
2023/04/09 10:26:17;;;;;;;0.13;0.13;;;16.00;59.20;;;;;;5080622;28;20245;-59
2023/04/09 10:28:43;;;;;;;0.00;0.00;;;16.10;57.50;;;;;;5092867;28;20188;-59
2023/04/09 10:31:09;;;;;;;0.00;0.00;;;16.20;58.50;;;;;;5093997;28;20184;-58
2023/04/09 10:33:36;;;;;;;0.00;0.00;;;16.10;57.90;;;;;;5093559;28;20169;-58
2023/04/09 10:36:12;;;;;;;0.00;0.00;;;16.00;58.00;;;;;;5075527;28;20546;-58
2023/04/09 10:38:40;;;;;;;0.00;0.00;;;15.90;58.90;;;;;;5093663;28;20176;-58
2023/04/09 10:41:21;;;;;;;0.00;0.00;;;15.80;59.90;;;;;;5083626;28;20185;-58
2023/04/09 10:43:47;;;;;;;0.00;0.00;;;15.80;60.50;;;;;;5073424;28;20305;-58
2023/04/09 10:46:32;;;;;;;0.00;0.00;;;15.70;60.40;;;;;;5087595;28;20203;-58
2023/04/09 10:49:08;;;;;;;0.00;0.00;;;15.70;61.30;;;;;;5092897;28;20182;-58
2023/04/09 10:51:40;;;;;;;0.00;0.00;;;15.60;61.30;;;;;;5093478;28;20180;-58
2023/04/09 10:54:36;;;;;;;0.13;0.13;;;15.50;60.70;;;;;;5093474;28;20176;-59
2023/04/09 10:57:10;;;;;;;0.00;0.00;;;15.50;60.70;;;;;;5093052;28;20199;-59
2023/04/09 10:59:40;;;;;;;0.00;0.00;;;15.70;62.80;;;;;;5093302;28;20657;-59
2023/04/09 11:02:28;;;;;;;0.00;0.00;;;16.00;62.70;;;;;;5093112;28;20608;-59
2023/04/09 11:05:02;;;;;;;0.22;0.22;;;16.00;62.20;;;;;;5093154;28;20647;-60
2023/04/09 11:07:31;;;;;;;0.00;0.00;;;16.00;62.40;;;;;;5092673;28;20172;-59
2023/04/09 11:09:57;;;;;;;0.00;0.00;;;15.80;60.30;;;;;;5093182;28;20180;-59
2023/04/09 11:12:22;;;;;;;0.00;0.00;;;15.50;62.00;;;;;;5092992;28;20180;-59
2023/04/09 11:14:48;;;;;;;0.00;0.00;;;15.40;62.80;;;;;;5092518;28;20188;-59
2023/04/09 11:17:14;;;;;;;0.00;0.00;;;15.50;61.50;;;;;;5082399;28;20208;-59
2023/04/09 11:19:39;;;;;;;0.00;0.00;;;15.30;62.70;;;;;;5087036;28;20211;-60
2023/04/09 11:22:05;;;;;;;0.00;0.00;;;15.40;63.70;;;;;;5091712;28;20215;-59
2023/04/09 11:24:45;;;;;;;0.00;0.00;;;15.50;60.30;;;;;;5092203;28;20188;-59
2023/04/09 11:27:11;;;;;;;0.10;0.10;;;15.60;58.30;;;;;;5091869;28;20258;-59
2023/04/09 11:29:37;;;;;;;0.05;0.05;;;15.60;58.30;;;;;;5072415;28;20187;-59
2023/04/09 11:32:06;;;;;;;0.00;0.00;;;15.60;57.60;;;;;;5091128;28;20176;-59
2023/04/09 11:34:31;;;;;;;0.00;0.00;;;15.60;58.20;;;;;;5091864;28;20587;-59
2023/04/09 11:36:58;;;;;;;0.00;0.00;;;15.70;58.80;;;;;;5092293;28;20203;-59
2023/04/09 11:39:25;;;;;;;0.00;0.00;;;15.70;57.00;;;;;;5091810;28;20219;-59
2023/04/09 11:41:51;;;;;;;0.00;0.00;;;15.80;56.60;;;;;;5092307;28;20172;-59
2023/04/09 11:44:16;;;;;;;0.00;0.00;;;15.90;57.40;;;;;;5091869;28;20691;-59
2023/04/09 11:46:42;;;;;;;0.00;0.00;;;16.10;57.70;;;;;;5091795;28;20267;-59
2023/04/09 11:49:08;;;;;;;0.00;0.00;;;16.00;54.10;;;;;;5092076;28;20172;-59
2023/04/09 11:51:34;;;;;;;0.00;0.00;;;15.90;53.90;;;;;;5092067;28;21385;-59
2023/04/09 11:54:04;;;;;;;0.00;0.00;;;15.80;53.80;;;;;;5092299;28;20196;-59
2023/04/09 11:56:31;;;;;;;0.00;0.00;;;15.80;53.90;;;;;;5091657;28;20184;-59
2023/04/09 11:58:57;;;;;;;0.00;0.00;;;15.80;54.40;;;;;;5092115;28;20646;-59
2023/04/09 12:01:22;;;;;;;0.00;0.00;;;15.80;54.00;;;;;;5091144;28;20172;-59
2023/04/09 12:03:54;;;;;;;0.10;0.10;;;15.90;54.40;;;;;;5072304;28;20216;-59
2023/04/09 12:06:21;;;;;;;0.00;0.00;;;16.30;53.10;;;;;;5091499;28;20309;-59
2023/04/09 12:08:52;;;;;;;0.00;0.00;;;16.70;52.10;;;;;;5091238;28;20255;-59
2023/04/09 12:11:17;;;;;;;0.00;0.00;;;17.00;52.10;;;;;;5091407;28;20179;-59
2023/04/09 12:13:45;;;;;;;0.25;0.10;;;17.10;51.20;;;;;;5091182;28;20188;-58
2023/04/09 12:16:11;;;;;;;0.00;0.00;;;17.00;51.20;;;;;;5089955;28;20546;-58
2023/04/09 12:18:37;;;;;;;0.00;0.00;;;16.90;52.00;;;;;;5073447;28;20213;-58
2023/04/09 12:21:04;;;;;;;0.00;0.00;;;16.70;51.70;;;;;;5090938;28;20176;-58
2023/04/09 12:23:30;;;;;;;0.00;0.00;;;16.70;52.40;;;;;;5091567;28;20298;-58
2023/04/09 12:25:58;;;;;;;0.00;0.00;;;16.70;51.20;;;;;;5091832;28;20674;-58
2023/04/09 12:28:24;;;;;;;0.00;0.00;;;16.80;52.10;;;;;;5086755;28;20219;-58
2023/04/09 12:30:50;;;;;;;0.00;0.00;;;16.90;51.10;;;;;;5083389;28;20266;-58
2023/04/09 12:33:16;;;;;;;0.00;0.00;;;17.20;52.90;;;;;;5091487;28;20239;-59
2023/04/09 12:35:41;;;;;;;0.00;0.00;;;17.50;51.90;;;;;;5091370;28;20566;-59
2023/04/09 12:38:07;;;;;;;0.00;0.00;;;17.30;50.00;;;;;;5090935;28;20184;-58
2023/04/09 12:40:34;;;;;;;0.00;0.00;;;17.20;49.50;;;;;;5091330;28;20167;-58
2023/04/09 12:43:00;;;;;;;0.00;0.00;;;17.20;49.90;;;;;;5091015;28;20615;-60
2023/04/09 12:45:26;;;;;;;0.00;0.00;;;16.90;49.60;;;;;;5090452;28;20176;-59
2023/04/09 12:47:52;;;;;;;0.00;0.00;;;16.70;50.40;;;;;;5091308;28;20168;-59
2023/04/09 12:50:17;;;;;;;0.00;0.00;;;16.70;49.50;;;;;;5091004;28;20217;-59
2023/04/09 12:52:43;;;;;;;0.00;0.00;;;16.70;51.10;;;;;;5091234;28;20172;-59